This is the latest recevied weather packets stored in our database for station/object YD2UMH-10. If no packets are shown the sender has not sent any weather packets the latest 1 day(s).
| Time | Temp. | Humidity | Pressure | Rain* | Wind** | Luminosity | Snow |
|---|---|---|---|---|---|---|---|
| 1778065226 | 28.89° C | 99% | 988 hPa | - | - | 0 W/m² | - |
| 1778064904 | 29.44° C | 99% | 988 hPa | - | - | 0 W/m² | - |
| 1778064582 | 29.44° C | 99% | 988 hPa | - | - | 0 W/m² | - |
| 1778060717 | 31.67° C | 99% | 987 hPa | - | - | 0 W/m² | - |
| 1778060395 | 31.67° C | 99% | 987 hPa | - | - | 0 W/m² | - |
| 1778060073 | 32.22° C | 99% | 987 hPa | - | - | 0 W/m² | - |
| 1778059429 | 32.78° C | 99% | 987 hPa | - | - | 0 W/m² | - |
| 1778059107 | 32.78° C | 99% | 987 hPa | - | - | 0 W/m² | - |
| 1778058785 | 32.78° C | 99% | 987 hPa | - | - | 0 W/m² | - |
| 1778058463 | 33.33° C | 99% | 987 hPa | - | - | 0 W/m² | - |
| 1778057819 | 33.89° C | 99% | 987 hPa | - | - | 0 W/m² | - |
| 1778057497 | 33.33° C | 99% | 987 hPa | - | - | 0 W/m² | - |
| 1778057175 | 33.33° C | 99% | 987 hPa | - | - | 0 W/m² | - |
| 1778056853 | 34.44° C | 99% | 987 hPa | - | - | 0 W/m² | - |
| 1778056531 | 34.44° C | 99% | 987 hPa | - | - | 0 W/m² | - |
| 1778056209 | 34.44° C | 99% | 987 hPa | - | - | 0 W/m² | - |
| 1778055887 | 36.11° C | 99% | 987 hPa | - | - | 0 W/m² | - |
| 1778055565 | 37.22° C | 99% | 987 hPa | - | - | 0 W/m² | - |
| 1778053633 | 39.44° C | 67% | 987 hPa | - | - | 0 W/m² | - |
| 1778053311 | 40.56° C | 65% | 987 hPa | - | - | 0 W/m² | - |
| 1778047192 | 36.67° C | 99% | 988 hPa | - | - | 0 W/m² | - |
| 1778046870 | 41.11° C | 77% | 988 hPa | - | - | 0 W/m² | - |
| 1778046226 | 40.56° C | 78% | 988 hPa | - | - | 0 W/m² | - |
| 1778045904 | 36.67° C | 92% | 988 hPa | - | - | 0 W/m² | - |
| 1778045260 | 39.44° C | 76% | 989 hPa | - | - | 0 W/m² | - |
* Rain since midnight (hover to see other rain measurements)
** Current wind speed in m/s (hover to see current wind gust speed)